Time;durP1;ratioP1;P1;durP2;ratioP2;P2;SDS_P1;SDS_P2;PMS_P1;PMS_P2;Temp;Humidity;BMP_temperature;BMP_pressure;BME280_temperature;BME280_humidity;BME280_pressure;Samples;Min_cycle;Max_cycle;Signal;HPM_P1;HPM_P2
2023/08/02 00:01:44;;;;;;;10.70;3.40;;;;;;;16.81;100.00;99005.69;5030185;28;20290;-59
2023/08/02 00:04:09;;;;;;;4.60;2.67;;;;;;;16.81;100.00;99003.09;5034006;28;20202;-59
2023/08/02 00:06:35;;;;;;;6.37;2.67;;;;;;;16.72;100.00;99007.41;5034553;28;20214;-60
2023/08/02 00:09:00;;;;;;;6.83;3.13;;;;;;;16.78;100.00;99002.44;5034279;28;20202;-60
2023/08/02 00:11:25;;;;;;;5.13;2.50;;;;;;;16.77;100.00;98997.41;5035143;28;20778;-60
2023/08/02 00:13:50;;;;;;;5.03;2.80;;;;;;;16.85;100.00;99001.84;5032867;28;20178;-60
2023/08/02 00:16:16;;;;;;;5.37;2.60;;;;;;;16.98;100.00;98996.28;5033640;28;20218;-60
2023/08/02 00:18:41;;;;;;;5.87;2.80;;;;;;;16.96;100.00;98985.25;5028617;28;20222;-60
2023/08/02 00:21:06;;;;;;;5.40;2.50;;;;;;;16.93;100.00;98988.94;5027708;28;20229;-59
2023/08/02 00:23:32;;;;;;;4.77;2.47;;;;;;;16.97;100.00;98979.88;5037706;28;20251;-60
2023/08/02 00:25:58;;;;;;;6.13;2.60;;;;;;;16.97;100.00;98976.44;5033293;28;20193;-60
2023/08/02 00:28:23;;;;;;;4.20;2.50;;;;;;;16.86;100.00;98975.72;5033924;28;20213;-60
2023/08/02 00:30:48;;;;;;;5.53;2.83;;;;;;;16.89;100.00;98975.44;5028351;28;20499;-60
2023/08/02 00:33:14;;;;;;;8.97;2.90;;;;;;;16.90;100.00;98977.03;5032985;28;20182;-59
2023/08/02 00:35:44;;;;;;;4.97;3.07;;;;;;;16.85;100.00;98979.28;5033044;28;20193;-59
2023/08/02 00:38:09;;;;;;;6.83;2.47;;;;;;;16.90;100.00;98978.81;5033890;28;20174;-60
2023/08/02 00:40:35;;;;;;;3.60;2.23;;;;;;;16.94;100.00;98974.97;5027339;28;20228;-61
2023/08/02 00:43:00;;;;;;;4.47;2.47;;;;;;;16.97;100.00;98976.44;5038892;28;20653;-59
2023/08/02 00:45:25;;;;;;;5.17;2.50;;;;;;;16.97;100.00;98987.69;5031531;28;20166;-59
2023/08/02 00:47:50;;;;;;;5.53;2.20;;;;;;;16.94;100.00;98980.16;5033600;28;20211;-59
2023/08/02 00:50:16;;;;;;;3.90;2.60;;;;;;;16.94;100.00;98967.19;5023946;28;20194;-60
2023/08/02 00:52:41;;;;;;;5.63;2.87;;;;;;;16.83;100.00;98959.63;5032421;28;20938;-60
2023/08/02 00:55:07;;;;;;;4.80;2.60;;;;;;;16.89;100.00;98967.63;5033167;28;20201;-60
2023/08/02 00:57:32;;;;;;;5.07;2.80;;;;;;;16.92;100.00;98963.94;5033183;28;20667;-60
2023/08/02 00:59:57;;;;;;;6.10;2.93;;;;;;;16.97;100.00;98960.88;5033189;28;20182;-61
2023/08/02 01:02:24;;;;;;;3.47;2.30;;;;;;;16.97;100.00;98961.69;5038550;28;20217;-59
2023/08/02 01:04:49;;;;;;;4.77;2.80;;;;;;;16.98;100.00;98952.94;5032994;28;20502;-59
2023/08/02 01:07:14;;;;;;;3.23;2.63;;;;;;;17.05;100.00;98953.13;5033031;28;20193;-60
2023/08/02 01:09:49;;;;;;;5.33;2.50;;;;;;;17.05;100.00;98946.16;5032931;28;20206;-59
2023/08/02 01:12:19;;;;;;;4.60;2.80;;;;;;;17.03;100.00;98940.31;5038159;28;20327;-60
2023/08/02 01:14:49;;;;;;;5.83;2.97;;;;;;;17.11;100.00;98936.94;5032456;28;20230;-62
2023/08/02 01:17:15;;;;;;;4.63;2.37;;;;;;;17.06;100.00;98927.00;5032702;28;20262;-61
2023/08/02 01:19:42;;;;;;;8.10;2.77;;;;;;;17.05;100.00;98927.16;5026901;28;20190;-59
2023/08/02 01:22:07;;;;;;;2.60;2.37;;;;;;;17.08;100.00;98935.47;5022176;28;20286;-61
2023/08/02 01:24:34;;;;;;;4.13;2.50;;;;;;;17.08;100.00;98927.66;5032306;28;20272;-60
2023/08/02 01:27:13;;;;;;;4.80;2.83;;;;;;;17.01;100.00;98928.44;5033027;28;20224;-60
2023/08/02 01:29:45;;;;;;;5.87;2.57;;;;;;;16.94;100.00;98921.25;5032843;28;20672;-60
2023/08/02 01:35:34;;;;;;;5.63;2.73;;;;;;;16.71;100.00;98920.91;5020980;28;20193;-61
2023/08/02 01:38:00;;;;;;;6.60;3.03;;;;;;;16.46;100.00;98922.53;5032177;28;20685;-59
2023/08/02 01:40:26;;;;;;;7.83;3.03;;;;;;;16.32;100.00;98926.47;5024645;28;20542;-59
2023/08/02 01:42:51;;;;;;;6.50;2.80;;;;;;;16.28;100.00;98925.94;5037973;28;20232;-60
2023/08/02 01:45:16;;;;;;;4.70;2.80;;;;;;;16.26;100.00;98929.66;5032031;28;20190;-60
2023/08/02 01:47:41;;;;;;;4.97;2.83;;;;;;;16.19;100.00;98929.44;5032050;28;20252;-59
2023/08/02 01:50:07;;;;;;;4.80;2.47;;;;;;;16.16;100.00;98915.94;5022650;28;20609;-59
2023/08/02 01:52:32;;;;;;;7.73;3.20;;;;;;;16.09;100.00;98920.94;5046775;28;20186;-61
2023/08/02 01:54:57;;;;;;;4.37;2.70;;;;;;;15.96;100.00;98916.91;5031899;28;20258;-60
2023/08/02 01:57:23;;;;;;;3.83;2.47;;;;;;;15.98;100.00;98917.56;5032067;28;20281;-60
2023/08/02 01:59:48;;;;;;;4.87;2.60;;;;;;;16.03;100.00;98916.31;5032095;28;20559;-60
2023/08/02 02:02:13;;;;;;;5.93;2.60;;;;;;;16.05;100.00;98904.84;5022595;28;20266;-60
2023/08/02 02:04:38;;;;;;;5.27;3.13;;;;;;;15.88;100.00;98900.47;5030296;28;20245;-60
2023/08/02 02:07:04;;;;;;;5.50;2.60;;;;;;;15.91;100.00;98890.59;5032110;28;20519;-59
2023/08/02 02:09:29;;;;;;;4.93;2.57;;;;;;;15.94;100.00;98892.09;5032188;28;20220;-60
2023/08/02 02:11:54;;;;;;;3.37;2.30;;;;;;;15.88;100.00;98887.50;5034750;28;20218;-60
2023/08/02 02:14:19;;;;;;;6.90;2.70;;;;;;;15.92;100.00;98881.84;5032450;28;20178;-59
2023/08/02 02:16:45;;;;;;;9.27;3.17;;;;;;;15.78;100.00;98875.38;5031703;28;20182;-59
2023/08/02 02:19:10;;;;;;;5.57;2.40;;;;;;;15.80;100.00;98883.84;5031945;28;20177;-59
2023/08/02 02:21:36;;;;;;;6.53;3.23;;;;;;;15.77;100.00;98897.06;5032422;28;20229;-59
2023/08/02 02:24:01;;;;;;;5.90;3.03;;;;;;;15.80;100.00;98901.16;5034864;28;20171;-59
2023/08/02 02:26:27;;;;;;;4.27;2.63;;;;;;;15.81;100.00;98898.44;5030534;28;20193;-59
2023/08/02 02:28:52;;;;;;;4.90;2.97;;;;;;;15.74;100.00;98876.66;5031921;28;20557;-59
2023/08/02 02:31:17;;;;;;;5.43;2.87;;;;;;;15.74;100.00;98855.91;5030608;28;20256;-60
2023/08/02 02:33:42;;;;;;;4.97;3.20;;;;;;;15.62;100.00;98842.31;5037810;28;20660;-60
2023/08/02 02:36:08;;;;;;;6.23;2.67;;;;;;;15.70;100.00;98844.19;5030959;28;20216;-61
2023/08/02 02:38:33;;;;;;;4.90;2.80;;;;;;;15.70;100.00;98845.97;5031625;28;20196;-61
2023/08/02 02:40:58;;;;;;;4.00;2.60;;;;;;;15.73;100.00;98838.72;5027629;28;20237;-60
2023/08/02 02:43:24;;;;;;;5.20;3.30;;;;;;;15.75;100.00;98836.78;5033008;28;20177;-60
2023/08/02 02:45:49;;;;;;;5.63;2.80;;;;;;;15.81;100.00;98837.97;5045824;28;20197;-60
2023/08/02 02:48:14;;;;;;;5.27;2.50;;;;;;;15.95;100.00;98841.84;5031387;28;20220;-60
2023/08/02 02:50:40;;;;;;;7.00;3.10;;;;;;;15.98;100.00;98836.38;5025234;28;20348;-60
2023/08/02 02:53:05;;;;;;;4.80;2.87;;;;;;;15.98;100.00;98841.56;5042205;28;20178;-60
2023/08/02 02:55:30;;;;;;;6.47;3.10;;;;;;;16.05;100.00;98837.41;5030785;28;20212;-60
2023/08/02 02:57:55;;;;;;;7.00;3.30;;;;;;;16.05;100.00;98826.19;5030012;28;20182;-61
2023/08/02 03:00:21;;;;;;;7.57;3.30;;;;;;;16.07;100.00;98817.28;5012819;28;20454;-59
2023/08/02 03:02:46;;;;;;;4.67;2.77;;;;;;;16.07;100.00;98812.13;5044003;28;20174;-59
2023/08/02 03:05:11;;;;;;;4.50;2.60;;;;;;;16.12;100.00;98803.88;5030587;28;20265;-60
2023/08/02 03:07:36;;;;;;;5.50;2.90;;;;;;;16.11;100.00;98802.25;5031279;28;20182;-63
2023/08/02 03:10:03;;;;;;;7.07;2.80;;;;;;;15.99;100.00;98804.28;5031155;28;20660;-59
2023/08/02 03:12:28;;;;;;;6.87;2.80;;;;;;;15.85;100.00;98807.41;5033170;28;20273;-59
2023/08/02 03:14:53;;;;;;;5.30;3.00;;;;;;;15.82;100.00;98806.72;5025276;28;20584;-60
2023/08/02 03:17:19;;;;;;;4.87;2.70;;;;;;;15.70;100.00;98800.09;5036036;28;20272;-60
2023/08/02 03:19:44;;;;;;;4.90;2.80;;;;;;;15.68;100.00;98799.47;5030565;28;20204;-60
2023/08/02 03:22:09;;;;;;;4.00;2.50;;;;;;;15.59;100.00;98803.75;5036140;28;20220;-60
2023/08/02 03:24:34;;;;;;;5.57;2.93;;;;;;;15.64;100.00;98800.69;5030819;28;20510;-60
2023/08/02 03:27:00;;;;;;;4.23;2.63;;;;;;;15.50;100.00;98807.22;5031204;28;20166;-59
2023/08/02 03:29:25;;;;;;;4.23;2.27;;;;;;;15.47;100.00;98797.16;5030543;28;20656;-60
2023/08/02 03:31:51;;;;;;;3.57;2.53;;;;;;;15.41;100.00;98789.97;5014374;28;20268;-60
2023/08/02 03:34:16;;;;;;;5.37;3.33;;;;;;;15.37;100.00;98779.09;5016000;28;20186;-60
2023/08/02 03:36:44;;;;;;;8.17;3.03;;;;;;;15.36;100.00;98767.09;5035542;28;20522;-61
2023/08/02 03:39:10;;;;;;;4.07;3.00;;;;;;;15.31;100.00;98762.34;5034745;28;20185;-60
2023/08/02 03:41:36;;;;;;;3.80;2.67;;;;;;;15.36;100.00;98753.34;5022898;28;20230;-60
2023/08/02 03:44:01;;;;;;;3.77;2.70;;;;;;;15.47;100.00;98769.47;5033853;28;20529;-60
2023/08/02 03:46:26;;;;;;;3.67;2.70;;;;;;;15.47;100.00;98760.88;5033381;28;20224;-60
2023/08/02 03:48:51;;;;;;;6.33;3.13;;;;;;;15.50;100.00;98760.56;5034321;28;20240;-61
2023/08/02 03:51:17;;;;;;;4.37;2.77;;;;;;;15.49;100.00;98757.19;5034211;28;20225;-59
2023/08/02 03:53:42;;;;;;;5.03;3.03;;;;;;;15.47;100.00;98747.94;5040111;28;20193;-60
2023/08/02 03:56:07;;;;;;;6.43;2.67;;;;;;;15.31;100.00;98728.66;5032958;28;20280;-60
2023/08/02 03:58:33;;;;;;;6.83;3.07;;;;;;;15.29;100.00;98712.47;5034685;28;20178;-60
2023/08/02 04:00:58;;;;;;;4.47;2.67;;;;;;;15.21;100.00;98706.38;5031479;28;20221;-60
2023/08/02 04:03:23;;;;;;;4.73;2.80;;;;;;;15.21;100.00;98716.75;5030985;28;20265;-60
2023/08/02 04:05:48;;;;;;;7.23;2.97;;;;;;;15.29;100.00;98719.41;5033497;28;20700;-60
2023/08/02 04:08:14;;;;;;;6.57;2.90;;;;;;;15.39;100.00;98717.56;5034331;28;20202;-61
2023/08/02 04:10:39;;;;;;;6.73;2.63;;;;;;;15.56;100.00;98730.66;5029149;28;20232;-60
2023/08/02 04:13:05;;;;;;;4.60;2.90;;;;;;;15.54;100.00;98735.19;5036954;28;20583;-60
2023/08/02 04:15:33;;;;;;;4.23;2.83;;;;;;;15.51;100.00;98740.69;5033216;28;20252;-60
2023/08/02 04:17:59;;;;;;;9.50;3.10;;;;;;;15.55;100.00;98737.63;5033645;28;20571;-60
2023/08/02 04:20:24;;;;;;;4.33;2.93;;;;;;;15.56;100.00;98728.88;5027253;28;20284;-60
2023/08/02 04:22:50;;;;;;;4.97;3.00;;;;;;;15.51;100.00;98712.97;5046570;28;20191;-60
2023/08/02 04:25:16;;;;;;;6.90;3.63;;;;;;;15.30;100.00;98719.25;5033298;28;20517;-61
2023/08/02 04:27:41;;;;;;;7.17;3.47;;;;;;;15.30;100.00;98731.41;5033939;28;20182;-61
2023/08/02 04:30:07;;;;;;;9.40;3.67;;;;;;;15.32;100.00;98727.72;5024440;28;20863;-60
2023/08/02 04:32:32;;;;;;;6.90;3.30;;;;;;;15.49;100.00;98728.69;5032279;28;20170;-58
2023/08/02 04:34:58;;;;;;;5.27;3.40;;;;;;;15.46;100.00;98721.19;5033483;28;20621;-58
2023/08/02 04:37:23;;;;;;;4.40;3.33;;;;;;;15.36;100.00;98720.47;5033812;28;20189;-57
2023/08/02 04:39:49;;;;;;;6.70;3.50;;;;;;;15.37;100.00;98716.91;5033683;28;20185;-58
2023/08/02 04:42:16;;;;;;;4.87;3.73;;;;;;;15.39;100.00;98720.16;5011843;28;20738;-58
2023/08/02 04:44:41;;;;;;;5.73;3.47;;;;;;;15.35;100.00;98707.66;5031665;28;20182;-58
2023/08/02 04:47:06;;;;;;;5.77;3.13;;;;;;;15.39;100.00;98714.16;5033529;28;20344;-58
2023/08/02 04:49:31;;;;;;;4.80;3.00;;;;;;;15.48;100.00;98706.31;5033606;28;20736;-58
2023/08/02 04:51:57;;;;;;;4.87;3.10;;;;;;;15.45;100.00;98692.84;5028874;28;20221;-57
2023/08/02 04:54:22;;;;;;;5.13;3.30;;;;;;;15.40;100.00;98690.69;5033816;28;20186;-56
2023/08/02 04:56:47;;;;;;;4.13;2.90;;;;;;;15.38;100.00;98695.22;5015949;28;20606;-57
2023/08/02 04:59:13;;;;;;;4.77;2.80;;;;;;;15.32;100.00;98691.44;5033647;28;20297;-60
2023/08/02 05:01:39;;;;;;;3.83;2.70;;;;;;;15.36;100.00;98691.16;5035926;28;20249;-57
2023/08/02 05:04:07;;;;;;;5.80;3.60;;;;;;;15.38;100.00;98684.03;5014623;28;20178;-57
2023/08/02 05:06:33;;;;;;;6.50;3.10;;;;;;;15.52;100.00;98683.50;5033413;28;20197;-58
2023/08/02 05:08:58;;;;;;;4.97;3.40;;;;;;;15.53;100.00;98682.56;5033069;28;20210;-58
2023/08/02 05:11:23;;;;;;;7.07;3.50;;;;;;;15.54;100.00;98671.22;5032778;28;20225;-58
2023/08/02 05:13:48;;;;;;;5.97;3.23;;;;;;;15.55;100.00;98677.22;5037524;28;20210;-58
2023/08/02 05:16:14;;;;;;;4.73;3.50;;;;;;;15.43;100.00;98684.38;5032639;28;20588;-58
2023/08/02 05:18:40;;;;;;;4.30;2.93;;;;;;;15.24;100.00;98681.00;5032983;28;20181;-58
2023/08/02 05:21:16;;;;;;;5.43;3.10;;;;;;;15.10;100.00;98677.16;5031333;28;20225;-57
2023/08/02 05:23:42;;;;;;;5.50;3.00;;;;;;;15.22;100.00;98682.09;5054767;28;20182;-58
2023/08/02 05:26:07;;;;;;;7.67;3.47;;;;;;;15.24;100.00;98681.00;5031493;28;20555;-60
2023/08/02 05:28:33;;;;;;;6.13;3.10;;;;;;;15.28;100.00;98677.16;5033225;28;20695;-58
2023/08/02 05:30:58;;;;;;;4.77;3.30;;;;;;;15.22;100.00;98676.94;5024620;28;20267;-58
2023/08/02 05:33:24;;;;;;;6.27;3.00;;;;;;;15.27;100.00;98669.53;5041323;28;20189;-58
2023/08/02 05:35:49;;;;;;;5.03;3.17;;;;;;;15.33;100.00;98674.09;5032400;28;20182;-59
2023/08/02 05:38:14;;;;;;;5.00;3.30;;;;;;;15.36;100.00;98675.59;5032938;28;20177;-58
2023/08/02 05:40:40;;;;;;;4.07;2.97;;;;;;;15.32;100.00;98664.72;5025187;28;20225;-57
2023/08/02 05:43:06;;;;;;;6.03;3.50;;;;;;;15.27;100.00;98666.94;5020037;28;20261;-57
2023/08/02 05:45:31;;;;;;;4.43;3.23;;;;;;;15.33;100.00;98664.56;5020495;28;20197;-58
2023/08/02 05:47:57;;;;;;;7.40;3.33;;;;;;;15.19;100.00;98659.91;5016333;28;20714;-57
2023/08/02 05:50:23;;;;;;;4.10;3.30;;;;;;;15.21;100.00;98647.63;5025371;28;20654;-59
2023/08/02 05:52:48;;;;;;;6.57;3.40;;;;;;;15.15;100.00;98640.47;5045169;28;20179;-59
2023/08/02 05:55:14;;;;;;;4.80;3.10;;;;;;;15.07;100.00;98645.56;5031565;28;20186;-58
2023/08/02 05:57:39;;;;;;;6.73;3.10;;;;;;;14.92;100.00;98633.16;5030948;28;20181;-58
2023/08/02 06:00:07;;;;;;;8.33;4.00;;;;;;;14.86;100.00;98631.16;5027445;28;20614;-58
2023/08/02 06:02:32;;;;;;;5.70;3.17;;;;;;;14.72;100.00;98605.75;5030385;28;20186;-58
2023/08/02 06:04:57;;;;;;;11.47;4.73;;;;;;;14.65;100.00;98606.34;5032582;28;20212;-58
2023/08/02 06:07:22;;;;;;;6.47;3.73;;;;;;;14.60;100.00;98608.53;5032260;28;20182;-58
2023/08/02 06:09:48;;;;;;;6.50;4.03;;;;;;;14.57;100.00;98593.28;5032281;28;20522;-58
2023/08/02 06:12:13;;;;;;;6.67;3.73;;;;;;;14.64;100.00;98586.56;5037146;28;20267;-59
2023/08/02 06:14:38;;;;;;;5.80;3.83;;;;;;;14.60;100.00;98574.06;5031611;28;20230;-58
2023/08/02 06:17:04;;;;;;;5.67;3.53;;;;;;;14.59;100.00;98578.44;5032603;28;20185;-58
2023/08/02 06:19:30;;;;;;;4.07;3.30;;;;;;;14.63;100.00;98574.59;5030541;28;20699;-59
2023/08/02 06:21:56;;;;;;;6.93;3.77;;;;;;;14.57;100.00;98571.78;5014468;28;20217;-59
2023/08/02 06:24:21;;;;;;;5.63;4.07;;;;;;;14.56;100.00;98578.72;5023858;28;20235;-59
2023/08/02 06:26:47;;;;;;;6.20;3.50;;;;;;;14.59;100.00;98575.06;5032177;28;20209;-59
2023/08/02 06:29:12;;;;;;;5.50;3.73;;;;;;;14.67;100.00;98577.72;5031781;28;20913;-59
2023/08/02 06:31:37;;;;;;;6.40;4.00;;;;;;;14.52;100.00;98557.53;5028435;28;20300;-59
2023/08/02 06:34:03;;;;;;;7.47;4.33;;;;;;;14.50;100.00;98556.03;5035340;28;20631;-59
2023/08/02 06:36:28;;;;;;;7.93;3.97;;;;;;;14.48;100.00;98542.44;5031913;28;20178;-59
2023/08/02 06:38:53;;;;;;;6.07;3.80;;;;;;;14.48;100.00;98543.25;5032126;28;20185;-59
2023/08/02 06:41:19;;;;;;;6.33;3.87;;;;;;;14.50;100.00;98537.94;5026319;28;20221;-59
2023/08/02 06:43:44;;;;;;;6.07;4.53;;;;;;;14.55;100.00;98534.88;5000594;28;20230;-59
2023/08/02 06:46:09;;;;;;;7.47;4.20;;;;;;;14.62;100.00;98528.16;5028646;28;20194;-59
2023/08/02 06:48:34;;;;;;;5.73;4.03;;;;;;;14.71;100.00;98527.31;5030005;28;20233;-58
2023/08/02 06:51:00;;;;;;;8.07;4.33;;;;;;;14.61;100.00;98529.94;5020282;28;20581;-58
2023/08/02 06:53:25;;;;;;;5.60;4.10;;;;;;;14.65;100.00;98533.09;5035251;28;20192;-59
2023/08/02 06:55:50;;;;;;;5.77;4.13;;;;;;;14.56;100.00;98526.97;5031033;28;20224;-59
2023/08/02 06:58:16;;;;;;;7.90;4.27;;;;;;;14.60;100.00;98530.91;5031492;28;20554;-59
2023/08/02 07:00:41;;;;;;;4.77;3.87;;;;;;;14.63;100.00;98522.03;5004084;28;20222;-59
2023/08/02 07:03:06;;;;;;;9.00;3.80;;;;;;;14.71;100.00;98521.31;5023260;28;20186;-59
2023/08/02 07:05:33;;;;;;;5.67;4.30;;;;;;;14.75;100.00;98514.88;5029574;28;20638;-58
2023/08/02 07:08:00;;;;;;;4.80;4.40;;;;;;;14.78;100.00;98514.59;5024493;28;20196;-60
2023/08/02 07:10:26;;;;;;;5.70;4.57;;;;;;;14.93;100.00;98517.44;5010422;28;20233;-59
2023/08/02 07:12:52;;;;;;;4.83;4.27;;;;;;;14.96;100.00;98504.22;5026203;28;20174;-58
2023/08/02 07:15:17;;;;;;;7.83;4.33;;;;;;;14.93;100.00;98512.25;5022502;28;20236;-58
2023/08/02 07:17:44;;;;;;;5.63;4.20;;;;;;;14.89;100.00;98493.63;5029394;28;20193;-58
2023/08/02 07:20:13;;;;;;;6.03;4.00;;;;;;;14.93;100.00;98486.38;5020100;28;20194;-58
2023/08/02 07:22:40;;;;;;;6.73;4.00;;;;;;;15.10;100.00;98493.28;5028767;28;20178;-60
2023/08/02 07:25:05;;;;;;;4.47;3.60;;;;;;;15.08;100.00;98487.47;5029685;28;20174;-59
2023/08/02 07:27:31;;;;;;;6.27;3.83;;;;;;;15.12;100.00;98483.59;5030741;28;20539;-59
2023/08/02 07:29:56;;;;;;;5.27;3.50;;;;;;;15.12;100.00;98477.59;5030631;28;20201;-58
2023/08/02 07:32:25;;;;;;;7.30;3.60;;;;;;;15.09;100.00;98477.91;5008114;28;20229;-58
2023/08/02 07:34:51;;;;;;;3.43;3.13;;;;;;;15.08;100.00;98473.69;5030865;28;20182;-58
2023/08/02 07:37:16;;;;;;;4.87;3.40;;;;;;;15.18;100.00;98466.63;5030949;28;20193;-58
2023/08/02 07:39:42;;;;;;;3.80;3.10;;;;;;;15.20;100.00;98469.88;5030933;28;20208;-57
2023/08/02 07:42:07;;;;;;;3.27;2.80;;;;;;;15.24;100.00;98447.88;5010392;28;20217;-57
2023/08/02 07:44:33;;;;;;;3.30;3.00;;;;;;;15.29;100.00;98450.84;5030603;28;20182;-57
2023/08/02 07:46:58;;;;;;;2.83;2.50;;;;;;;15.28;100.00;98449.22;5029611;28;20210;-58
2023/08/02 07:49:23;;;;;;;3.17;2.60;;;;;;;15.26;100.00;98439.97;5030868;28;20572;-58
2023/08/02 07:51:48;;;;;;;3.73;3.03;;;;;;;15.25;100.00;98440.94;5034313;28;20283;-59
2023/08/02 07:54:14;;;;;;;2.70;2.50;;;;;;;15.30;100.00;98425.72;5032407;28;20485;-58
2023/08/02 07:56:39;;;;;;;3.17;2.80;;;;;;;15.30;100.00;98426.53;5030723;28;20189;-59
2023/08/02 07:59:04;;;;;;;3.07;2.80;;;;;;;15.36;100.00;98426.91;5030490;28;20184;-58
2023/08/02 08:01:30;;;;;;;3.20;2.90;;;;;;;15.31;100.00;98417.81;5031234;28;20248;-58
2023/08/02 08:03:55;;;;;;;3.87;2.83;;;;;;;15.31;100.00;98414.41;5033878;28;20281;-58
2023/08/02 08:06:23;;;;;;;3.77;3.20;;;;;;;15.37;100.00;98402.59;5029892;28;20182;-58
2023/08/02 08:08:49;;;;;;;3.03;2.80;;;;;;;15.33;100.00;98396.91;5030467;28;20209;-59
2023/08/02 08:11:14;;;;;;;3.40;2.77;;;;;;;15.37;100.00;98393.06;5029676;28;20225;-59
2023/08/02 08:13:39;;;;;;;3.70;2.97;;;;;;;15.46;100.00;98394.69;5035795;28;20236;-59
2023/08/02 08:16:05;;;;;;;3.20;2.90;;;;;;;15.51;100.00;98396.81;5029778;28;20233;-59
2023/08/02 08:18:31;;;;;;;6.43;2.87;;;;;;;15.52;100.00;98398.44;5031529;28;20304;-58
2023/08/02 08:20:57;;;;;;;3.00;2.20;;;;;;;15.48;100.00;98394.56;5025204;28;20244;-59
2023/08/02 08:23:22;;;;;;;3.10;2.60;;;;;;;15.51;100.00;98388.25;5040290;28;20186;-59
2023/08/02 08:25:47;;;;;;;4.43;2.53;;;;;;;15.45;100.00;98381.91;5033478;28;20576;-61
2023/08/02 08:28:12;;;;;;;3.30;2.87;;;;;;;15.49;100.00;98373.66;5033288;28;20265;-60
2023/08/02 08:30:38;;;;;;;2.93;2.63;;;;;;;15.47;100.00;98373.00;5028397;28;20738;-60
2023/08/02 08:33:03;;;;;;;3.87;3.20;;;;;;;15.47;100.00;98367.81;5030149;28;20182;-60
2023/08/02 08:35:28;;;;;;;3.50;3.20;;;;;;;15.58;100.00;98364.13;5033406;28;20181;-61
2023/08/02 08:37:53;;;;;;;2.90;2.70;;;;;;;15.63;100.00;98372.25;5033446;28;20182;-61
2023/08/02 08:40:20;;;;;;;4.83;2.90;;;;;;;15.65;100.00;98359.13;5026185;28;20197;-61
2023/08/02 08:42:52;;;;;;;3.30;2.60;;;;;;;15.74;100.00;98365.97;5037600;28;20189;-62
2023/08/02 08:45:19;;;;;;;4.80;2.63;;;;;;;15.81;100.00;98351.38;5033271;28;20209;-62
2023/08/02 08:47:45;;;;;;;3.50;3.27;;;;;;;15.89;100.00;98350.63;5033462;28;20201;-61
2023/08/02 08:50:11;;;;;;;3.03;2.83;;;;;;;15.85;100.00;98349.31;5024840;28;20605;-62
2023/08/02 08:52:39;;;;;;;3.03;2.83;;;;;;;15.87;100.00;98346.56;5047715;28;20170;-62
2023/08/02 08:55:06;;;;;;;2.40;2.20;;;;;;;15.79;100.00;98334.38;5032834;28;20273;-61
2023/08/02 08:57:32;;;;;;;3.00;2.13;;;;;;;15.86;100.00;98327.59;5033344;28;20648;-61
2023/08/02 08:59:58;;;;;;;3.13;2.60;;;;;;;15.88;100.00;98330.84;5033273;28;20193;-61
2023/08/02 09:02:23;;;;;;;2.37;2.17;;;;;;;15.85;100.00;98326.00;5036052;28;20226;-61
2023/08/02 09:04:51;;;;;;;2.50;2.30;;;;;;;15.85;100.00;98325.16;5032868;28;20599;-61
2023/08/02 09:07:16;;;;;;;2.30;2.10;;;;;;;15.86;100.00;98332.78;5033168;28;20185;-61
2023/08/02 09:09:41;;;;;;;3.27;2.30;;;;;;;15.85;100.00;98315.63;5032651;28;20198;-61
2023/08/02 09:12:07;;;;;;;1.90;1.80;;;;;;;15.86;100.00;98306.03;5038974;28;20303;-61
2023/08/02 09:14:32;;;;;;;2.33;1.90;;;;;;;15.96;100.00;98311.88;5028353;28;20264;-61
2023/08/02 09:17:00;;;;;;;2.20;2.00;;;;;;;15.94;100.00;98301.66;5033205;28;20614;-60
2023/08/02 09:19:28;;;;;;;2.33;1.83;;;;;;;15.81;100.00;98290.94;5033206;28;20181;-59
2023/08/02 09:22:13;;;;;;;1.90;1.80;;;;;;;15.92;100.00;98310.59;5033017;28;20255;-61
2023/08/02 09:24:40;;;;;;;2.17;1.70;;;;;;;15.87;100.00;98307.66;5032036;28;20277;-60
2023/08/02 09:27:13;;;;;;;2.10;1.60;;;;;;;15.92;100.00;98301.00;5032913;28;20638;-60
2023/08/02 09:29:49;;;;;;;2.13;1.93;;;;;;;15.95;100.00;98300.69;5031796;28;20230;-61
2023/08/02 09:32:16;;;;;;;2.10;1.93;;;;;;;16.00;100.00;98287.25;5035390;28;20224;-61
2023/08/02 09:34:46;;;;;;;2.10;1.87;;;;;;;16.07;100.00;98293.38;5032084;28;20268;-61
2023/08/02 09:37:15;;;;;;;1.90;1.80;;;;;;;16.10;100.00;98295.66;5032699;28;20622;-61
2023/08/02 09:39:51;;;;;;;3.70;1.90;;;;;;;16.14;100.00;98285.78;5031194;28;20522;-61
2023/08/02 09:42:20;;;;;;;2.40;2.00;;;;;;;16.24;100.00;98278.63;5009838;28;20254;-61
2023/08/02 09:44:56;;;;;;;2.63;2.00;;;;;;;16.21;100.00;98289.34;5032081;28;20262;-60
2023/08/02 09:47:22;;;;;;;2.00;1.90;;;;;;;16.28;100.00;98269.53;5027214;28;20332;-60
2023/08/02 09:50:10;;;;;;;1.87;1.77;;;;;;;16.34;100.00;98257.69;5032188;28;20304;-61
2023/08/02 09:52:40;;;;;;;2.03;1.67;;;;;;;16.44;100.00;98260.09;5020987;28;20221;-61
2023/08/02 09:55:06;;;;;;;1.83;1.63;;;;;;;16.58;100.00;98262.00;5031881;28;20553;-61
2023/08/02 09:57:32;;;;;;;1.60;1.40;;;;;;;16.61;100.00;98263.47;5031919;28;20586;-60
2023/08/02 10:00:04;;;;;;;4.33;1.40;;;;;;;16.64;100.00;98254.53;5032100;28;20193;-60
2023/08/02 10:02:30;;;;;;;1.63;1.53;;;;;;;16.66;100.00;98248.19;5004383;28;20225;-60
2023/08/02 10:04:57;;;;;;;1.47;1.37;;;;;;;16.60;100.00;98238.47;5031708;28;20532;-60
2023/08/02 10:07:32;;;;;;;1.60;1.50;;;;;;;16.62;100.00;98231.31;5031545;28;20668;-60
2023/08/02 10:10:04;;;;;;;1.50;1.40;;;;;;;16.64;100.00;98225.97;5031633;28;20197;-61
2023/08/02 10:12:30;;;;;;;2.03;1.60;;;;;;;16.65;100.00;98218.00;5021006;28;20225;-61
2023/08/02 10:14:57;;;;;;;1.53;1.23;;;;;;;16.64;100.00;98218.97;5031525;28;20224;-61
2023/08/02 10:17:24;;;;;;;1.10;1.10;;;;;;;16.66;100.00;98214.44;5031851;28;20192;-61
2023/08/02 10:19:50;;;;;;;1.03;1.00;;;;;;;16.73;100.00;98210.19;5030128;28;20593;-60
2023/08/02 10:22:17;;;;;;;2.13;1.50;;;;;;;16.89;100.00;98208.47;5035754;28;20221;-60
2023/08/02 10:24:44;;;;;;;1.97;1.10;;;;;;;16.97;100.00;98203.28;5030991;28;20236;-61
2023/08/02 10:27:10;;;;;;;1.23;1.13;;;;;;;17.20;100.00;98205.88;5031452;28;20264;-60
2023/08/02 10:29:37;;;;;;;1.63;1.10;;;;;;;17.47;100.00;98206.34;5029910;28;20364;-61
2023/08/02 10:32:18;;;;;;;1.83;1.13;;;;;;;17.59;100.00;98199.75;5034299;28;20240;-58
2023/08/02 10:34:49;;;;;;;2.10;1.27;;;;;;;17.67;100.00;98188.47;5030958;28;20651;-58
2023/08/02 10:37:15;;;;;;;1.20;1.10;;;;;;;17.54;100.00;98188.28;5031444;28;20185;-59
2023/08/02 10:39:53;;;;;;;1.17;1.07;;;;;;;17.47;100.00;98182.16;5031056;28;20240;-58
2023/08/02 10:42:21;;;;;;;1.43;1.33;;;;;;;17.41;100.00;98173.25;5035514;28;20233;-58
2023/08/02 10:44:55;;;;;;;2.20;1.27;;;;;;;17.52;100.00;98167.63;5030846;28;20189;-59
2023/08/02 10:47:34;;;;;;;1.30;1.20;;;;;;;17.56;100.00;98174.13;5031092;28;20202;-57
2023/08/02 10:50:01;;;;;;;1.17;1.07;;;;;;;17.50;100.00;98171.38;5031280;28;20206;-59
2023/08/02 10:52:34;;;;;;;1.47;1.20;;;;;;;17.50;100.00;98166.19;5025176;28;20335;-58
2023/08/02 10:55:18;;;;;;;1.00;1.00;;;;;;;17.67;100.00;98161.66;5030937;28;20173;-59
2023/08/02 10:57:55;;;;;;;1.03;0.97;;;;;;;17.66;100.00;98157.44;5031090;28;20649;-59
2023/08/02 11:00:25;;;;;;;1.10;1.00;;;;;;;17.77;100.00;98154.41;5014294;27;20618;-58
2023/08/02 11:02:52;;;;;;;1.07;1.00;;;;;;;17.86;100.00;98145.56;5011919;28;20190;-57
2023/08/02 11:05:37;;;;;;;1.27;1.17;;;;;;;17.81;100.00;98137.47;5025916;28;20221;-57
2023/08/02 11:08:03;;;;;;;1.20;1.10;;;;;;;17.87;100.00;98136.75;5030843;28;20236;-58
2023/08/02 11:10:28;;;;;;;1.20;1.10;;;;;;;18.03;100.00;98135.78;5024513;28;20233;-58
2023/08/02 11:12:55;;;;;;;1.17;1.10;;;;;;;17.99;100.00;98133.75;5035686;28;20622;-58
2023/08/02 11:15:21;;;;;;;1.67;1.23;;;;;;;17.82;100.00;98133.88;5022657;28;20226;-58
2023/08/02 11:17:48;;;;;;;1.23;1.13;;;;;;;17.84;100.00;98136.31;5036664;28;20582;-57
2023/08/02 11:20:14;;;;;;;1.77;1.33;;;;;;;17.81;100.00;98129.69;5022253;28;20638;-58
2023/08/02 11:22:40;;;;;;;1.73;1.40;;;;;;;17.84;100.00;98128.50;5037606;28;20256;-57
2023/08/02 11:25:07;;;;;;;1.90;1.10;;;;;;;17.78;100.00;98122.22;5023564;28;20240;-58